createdAt,value
2017-06-12T00:00:35.630Z,62.24
2017-06-12T00:01:45.891Z,62.24
2017-06-12T00:02:56.158Z,62.44
2017-06-12T00:04:05.789Z,62.34
2017-06-12T00:05:15.426Z,62.44
2017-06-12T00:06:25.059Z,60.5
2017-06-12T00:07:34.379Z,60.41
2017-06-12T00:08:44.651Z,60.57
2017-06-12T00:09:55.065Z,60.31
2017-06-12T00:11:05.326Z,60.6
2017-06-12T00:12:15.597Z,60.31
2017-06-12T00:13:25.874Z,61.44
2017-06-12T00:14:36.129Z,61.08
2017-06-12T00:15:46.387Z,60.5
2017-06-12T00:16:56.647Z,59.83
2017-06-12T00:18:06.599Z,60.21
2017-06-12T00:19:16.873Z,60.99
2017-06-12T00:20:26.510Z,63.31
2017-06-12T00:21:36.775Z,62.24
2017-06-12T00:22:47.038Z,61.66
2017-06-12T00:23:57.301Z,60.79
2017-06-12T00:25:07.568Z,60.41
2017-06-12T00:26:17.838Z,62.4
2017-06-12T00:27:27.470Z,63.11
2017-06-12T00:28:37.101Z,63.89
2017-06-12T00:29:47.363Z,63.5
2017-06-12T00:30:57.623Z,63.89
2017-06-12T00:32:07.881Z,63.18
2017-06-12T00:33:17.683Z,63.98
2017-06-12T00:34:27.945Z,65.53
2017-06-12T00:35:37.576Z,65.24
2017-06-12T00:36:47.836Z,64.56
2017-06-12T00:37:58.103Z,63.6
2017-06-12T00:39:08.056Z,64.85
2017-06-12T00:40:18.318Z,66.01
2017-06-12T00:41:28.279Z,65.72
2017-06-12T00:42:38.549Z,65.92
2017-06-12T00:43:47.869Z,65.24
2017-06-12T00:44:57.967Z,66.5
2017-06-12T00:46:08.233Z,66.01
2017-06-12T00:47:18.182Z,66.98
2017-06-12T00:48:28.129Z,66.3
2017-06-12T00:49:38.417Z,66.69
2017-06-12T00:50:48.680Z,66.5
2017-06-12T00:51:58.941Z,66.78
2017-06-12T00:53:08.892Z,66.4
2017-06-12T00:54:19.155Z,66.5
2017-06-12T00:55:29.106Z,66.59
2017-06-12T00:56:39.050Z,67.08
2017-06-12T00:57:49.316Z,66.98
2017-06-12T00:58:59.265Z,66.4
2017-06-12T01:00:08.916Z,65.82
2017-06-12T01:01:18.866Z,67.17
2017-06-12T01:02:29.311Z,66.88
2017-06-12T01:03:39.263Z,66.98
2017-06-12T01:04:49.221Z,66.98
2017-06-12T01:05:59.484Z,66.78
2017-06-12T01:07:09.755Z,67.36
2017-06-12T01:08:19.707Z,66.88
2017-06-12T01:09:29.344Z,66.3
2017-06-12T01:10:38.977Z,66.56
2017-06-12T01:11:49.272Z,65.63
2017-06-12T01:12:59.531Z,66.5
2017-06-12T01:14:09.488Z,67.36
2017-06-12T01:15:19.753Z,67.56
2017-06-12T01:16:30.015Z,67.72
2017-06-12T01:17:39.964Z,67.04
2017-06-12T01:18:50.393Z,67.36
2017-06-12T01:20:00.347Z,66.98
2017-06-12T01:21:09.995Z,66.59
2017-06-12T01:22:19.946Z,65.43
2017-06-12T01:23:29.895Z,65.34
2017-06-12T01:24:39.537Z,63.5
2017-06-12T01:25:49.803Z,63.5
2017-06-12T01:26:59.440Z,63.21
2017-06-12T01:28:09.707Z,63.4
2017-06-12T01:29:19.970Z,63.79
2017-06-12T01:30:30.237Z,63.69
2017-06-12T01:31:40.191Z,65.24
2017-06-12T01:32:50.484Z,64.95
2017-06-12T01:34:00.114Z,63.89
2017-06-12T01:35:10.058Z,63.79
2017-06-12T01:36:19.843Z,62.92
2017-06-12T01:37:30.101Z,63.5
2017-06-12T01:38:40.053Z,63.4
2017-06-12T01:39:49.998Z,63.31
2017-06-12T01:41:00.284Z,63.4
2017-06-12T01:42:10.228Z,62.05
2017-06-12T01:43:20.501Z,62.44
2017-06-12T01:44:30.763Z,62.34
2017-06-12T01:45:41.031Z,61.95
2017-06-12T01:46:51.300Z,62.44
2017-06-12T01:48:01.401Z,62.92
2017-06-12T01:49:11.036Z,62.15
2017-06-12T01:50:21.302Z,61.57
2017-06-12T01:51:31.249Z,62.24
2017-06-12T01:52:41.210Z,63.11
2017-06-12T01:53:51.462Z,62.92
2017-06-12T01:55:01.094Z,63.31
2017-06-12T01:56:11.036Z,63.98
2017-06-12T01:57:20.987Z,62.98
2017-06-12T01:58:30.941Z,63.5
2017-06-12T01:59:41.203Z,63.76
2017-06-12T02:00:51.464Z,63.95
2017-06-12T02:02:01.415Z,63.56
2017-06-12T02:03:11.369Z,63.28
2017-06-12T02:04:21.637Z,63.76
2017-06-12T02:05:31.737Z,62.98
2017-06-12T02:06:41.683Z,64.34
2017-06-12T02:07:51.318Z,63.56
2017-06-12T02:09:01.578Z,63.37
2017-06-12T02:10:11.843Z,64.14
2017-06-12T02:11:22.108Z,63.76
2017-06-12T02:12:32.057Z,62.4
2017-06-12T02:13:41.688Z,64.37
2017-06-12T02:14:51.950Z,64.43
2017-06-12T02:16:01.904Z,64.63
2017-06-12T02:17:11.854Z,64.53
2017-06-12T02:18:21.805Z,64.72
2017-06-12T02:19:31.756Z,65.11
2017-06-12T02:20:42.016Z,65.59
2017-06-12T02:21:52.279Z,64.82
2017-06-12T02:23:02.380Z,65.59
2017-06-12T02:24:12.648Z,65.2
2017-06-12T02:25:22.593Z,65.59
2017-06-12T02:26:32.855Z,65.3
2017-06-12T02:27:43.123Z,65.2
2017-06-12T02:28:52.756Z,64.34
2017-06-12T02:30:02.702Z,63.37
2017-06-12T02:31:12.957Z,63.37
2017-06-12T02:32:23.232Z,64.82
2017-06-12T02:33:33.494Z,65.69
2017-06-12T02:34:43.791Z,65.69
2017-06-12T02:35:54.063Z,65.01
2017-06-12T02:37:04.013Z,64.82
2017-06-12T02:38:14.281Z,64.43
2017-06-12T02:39:24.558Z,64.05
2017-06-12T02:40:34.655Z,64.43
2017-06-12T02:41:44.921Z,63.4
2017-06-12T02:42:55.188Z,63.31
2017-06-12T02:44:05.471Z,63.31
2017-06-12T02:45:15.438Z,62.53
2017-06-12T02:46:25.388Z,62.02
2017-06-12T02:47:35.339Z,61.86
2017-06-12T02:48:44.969Z,61.57
2017-06-12T02:49:54.918Z,61.95
2017-06-12T02:51:04.553Z,61.57
2017-06-12T02:52:14.817Z,61.86
2017-06-12T02:53:24.763Z,61.66
2017-06-12T02:54:35.033Z,61.37
2017-06-12T02:55:44.357Z,61.18
2017-06-12T02:56:54.619Z,60.99
2017-06-12T02:58:04.882Z,61.18
2017-06-12T02:59:15.145Z,61.27
2017-06-12T03:00:25.091Z,60.99
2017-06-12T03:01:35.038Z,60.99
2017-06-12T03:02:44.359Z,61.18
2017-06-12T03:03:54.462Z,61.08
2017-06-12T03:05:04.416Z,60.69
2017-06-12T03:06:14.696Z,60.79
2017-06-12T03:07:24.642Z,60.6
2017-06-12T03:08:34.588Z,60.69
2017-06-12T03:09:44.846Z,61.08
2017-06-12T03:10:55.111Z,60.69
2017-06-12T03:12:05.060Z,60.69
2017-06-12T03:13:15.322Z,60.69
2017-06-12T03:14:25.273Z,60.6
2017-06-12T03:15:35.224Z,60.41
2017-06-12T03:16:45.488Z,60.41
2017-06-12T03:17:55.745Z,60.79
2017-06-12T03:19:05.691Z,60.69
2017-06-12T03:20:15.332Z,60.41
2017-06-12T03:21:25.437Z,60.5
2017-06-12T03:22:35.389Z,60.31
2017-06-12T03:23:45.655Z,60.5
2017-06-12T03:24:55.924Z,60.31
2017-06-12T03:26:05.880Z,60.11
2017-06-12T03:27:15.830Z,60.41
2017-06-12T03:28:25.467Z,60.41
2017-06-12T03:29:35.760Z,60.31
2017-06-12T03:30:45.710Z,60.02
2017-06-12T03:31:55.347Z,60.5
2017-06-12T03:33:05.612Z,60.41
2017-06-12T03:34:15.566Z,60.31
2017-06-12T03:35:25.832Z,60.5
2017-06-12T03:36:36.114Z,60.6
2017-06-12T03:37:46.072Z,60.5
2017-06-12T03:38:55.706Z,60.5
2017-06-12T03:40:04.715Z,60.11
2017-06-12T03:41:14.663Z,60.21
2017-06-12T03:42:24.927Z,59.92
2017-06-12T03:43:34.873Z,60.11
2017-06-12T03:44:45.290Z,59.83
2017-06-12T03:45:55.239Z,60.11
2017-06-12T03:47:05.496Z,60.11
2017-06-12T03:48:15.758Z,59.92
2017-06-12T03:49:25.710Z,60.11
2017-06-12T03:50:35.660Z,59.92
2017-06-12T03:51:45.606Z,60.11
2017-06-12T03:52:55.873Z,59.63
2017-06-12T03:54:05.820Z,60.31
2017-06-12T03:55:15.767Z,59.83
2017-06-12T03:56:26.184Z,59.73
2017-06-12T03:57:36.438Z,59.83
2017-06-12T03:58:46.698Z,59.44
2017-06-12T03:59:56.336Z,59.92
2017-06-12T04:01:06.285Z,59.73
2017-06-12T04:02:15.917Z,59.53
2017-06-12T04:03:25.863Z,59.73
2017-06-12T04:04:36.134Z,59.83
2017-06-12T04:05:46.632Z,59.73
2017-06-12T04:06:56.918Z,59.83
2017-06-12T04:08:06.389Z,59.92
2017-06-12T04:09:16.339Z,59.44
2017-06-12T04:10:26.299Z,59.92
2017-06-12T04:11:36.563Z,59.83
2017-06-12T04:12:46.512Z,59.83
2017-06-12T04:13:56.776Z,59.53
2017-06-12T04:15:06.409Z,59.15
2017-06-12T04:16:16.359Z,59.44
2017-06-12T04:17:26.312Z,59.44
2017-06-12T04:18:36.582Z,59.53
2017-06-12T04:19:46.683Z,59.15
2017-06-12T04:20:56.945Z,59.44
2017-06-12T04:22:06.897Z,59.15
2017-06-12T04:23:17.165Z,58.86
2017-06-12T04:24:27.427Z,59.15
2017-06-12T04:25:37.060Z,58.76
2017-06-12T04:26:46.701Z,58.86
2017-06-12T04:27:56.968Z,59.15
2017-06-12T04:29:07.237Z,58.95
2017-06-12T04:30:17.507Z,59.15
2017-06-12T04:31:27.143Z,58.86
2017-06-12T04:32:37.093Z,59.15
2017-06-12T04:33:47.352Z,59.25
2017-06-12T04:34:57.615Z,59.15
2017-06-12T04:36:07.886Z,58.76
2017-06-12T04:37:17.674Z,58.86
2017-06-12T04:38:27.317Z,59.05
2017-06-12T04:39:37.579Z,58.86
2017-06-12T04:40:47.220Z,58.86
2017-06-12T04:41:57.165Z,58.86
2017-06-12T04:43:07.110Z,58.95
2017-06-12T04:44:17.065Z,59.15
2017-06-12T04:45:27.012Z,58.86
2017-06-12T04:46:37.276Z,59.44
2017-06-12T04:47:47.543Z,58.76
2017-06-12T04:48:57.641Z,58.86
2017-06-12T04:50:07.591Z,59.05
2017-06-12T04:51:17.541Z,59.05
2017-06-12T04:52:27.490Z,58.95
2017-06-12T04:53:37.436Z,59.25
2017-06-12T04:54:47.074Z,59.05
2017-06-12T04:55:57.024Z,58.37
2017-06-12T04:57:07.291Z,58.47
2017-06-12T04:58:17.243Z,59.25
2017-06-12T04:59:27.192Z,58.67
2017-06-12T05:00:37.456Z,58.47
2017-06-12T05:01:47.095Z,58.67
2017-06-12T05:02:57.049Z,58.47
2017-06-12T05:04:07.312Z,58.57
2017-06-12T05:05:17.261Z,58.95
2017-06-12T05:06:27.056Z,58.28
2017-06-12T05:07:36.714Z,58.67
2017-06-12T05:08:46.975Z,58.76
2017-06-12T05:09:56.607Z,58.76
2017-06-12T05:11:06.560Z,58.18
2017-06-12T05:12:16.842Z,58.37
2017-06-12T05:13:27.109Z,58.28
2017-06-12T05:14:37.064Z,58.18
2017-06-12T05:15:47.323Z,59.34
2017-06-12T05:16:57.269Z,58.28
2017-06-12T05:18:07.541Z,58.57
2017-06-12T05:19:17.484Z,58.47
2017-06-12T05:20:27.765Z,58.47
2017-06-12T05:21:37.717Z,59.15
2017-06-12T05:22:47.350Z,58.76
2017-06-12T05:23:57.447Z,59.05
2017-06-12T05:25:07.395Z,58.95
2017-06-12T05:26:17.031Z,59.51
2017-06-12T05:27:26.977Z,59.15
2017-06-12T05:28:36.927Z,58.86
2017-06-12T05:29:46.559Z,58.95
2017-06-12T05:30:56.189Z,59.53
2017-06-12T05:32:06.141Z,59.15
2017-06-12T05:33:16.428Z,59.63
2017-06-12T05:34:26.073Z,59.63
2017-06-12T05:35:36.493Z,59.15
2017-06-12T05:36:46.757Z,59.34
2017-06-12T05:37:56.388Z,59.25
2017-06-12T05:39:06.024Z,59.53
2017-06-12T05:40:15.970Z,59.15
2017-06-12T05:41:25.297Z,59.05
2017-06-12T05:42:35.562Z,59.25
2017-06-12T05:43:45.504Z,59.25
2017-06-12T05:44:55.137Z,59.05
2017-06-12T05:46:04.772Z,59.15
2017-06-12T05:47:15.192Z,59.05
2017-06-12T05:48:25.449Z,59.05
2017-06-12T05:49:35.081Z,58.83
2017-06-12T05:50:44.717Z,58.93
2017-06-12T05:51:54.670Z,58.83
2017-06-12T05:53:04.306Z,58.95
2017-06-12T05:54:14.580Z,58.93
2017-06-12T05:55:24.842Z,59.25
2017-06-12T05:56:35.109Z,59.6
2017-06-12T05:57:45.375Z,59.12
2017-06-12T05:58:55.470Z,58.83
2017-06-12T06:00:05.732Z,59.12
2017-06-12T06:01:15.995Z,59.12
2017-06-12T06:02:25.955Z,58.47
2017-06-12T06:03:36.219Z,58.28
2017-06-12T06:04:45.855Z,59.15
2017-06-12T06:05:55.799Z,58.47
2017-06-12T06:07:06.065Z,58.57
2017-06-12T06:08:16.329Z,58.37
2017-06-12T06:09:26.278Z,58.57
2017-06-12T06:10:36.375Z,57.99
2017-06-12T06:11:46.638Z,58.18
2017-06-12T06:12:56.592Z,58.37
2017-06-12T06:14:06.855Z,58.57
2017-06-12T06:15:16.489Z,58.47
2017-06-12T06:16:26.752Z,58.28
2017-06-12T06:17:36.706Z,57.99
2017-06-12T06:18:46.660Z,58.57
2017-06-12T06:19:56.611Z,58.37
2017-06-12T06:21:06.614Z,57.89
2017-06-12T06:22:16.400Z,58.28
2017-06-12T06:23:26.351Z,58.18
2017-06-12T06:24:36.326Z,58.28
2017-06-12T06:25:45.976Z,58.28
2017-06-12T06:26:55.920Z,57.99
2017-06-12T06:28:05.557Z,58.28
2017-06-12T06:29:15.504Z,58.28
2017-06-12T06:30:25.450Z,58.18
2017-06-12T06:31:35.396Z,58.18
2017-06-12T06:32:45.028Z,58.28
2017-06-12T06:33:54.656Z,58.28
2017-06-12T06:35:04.927Z,58.09
2017-06-12T06:36:15.189Z,58.57
2017-06-12T06:37:25.450Z,57.79
2017-06-12T06:38:34.773Z,57.99
2017-06-12T06:39:44.724Z,57.89
2017-06-12T06:40:54.999Z,58.37
2017-06-12T06:42:04.640Z,58.28
2017-06-12T06:43:14.897Z,57.89
2017-06-12T06:44:24.852Z,58.67
2017-06-12T06:45:34.808Z,58.18
2017-06-12T06:46:45.075Z,57.89
2017-06-12T06:47:55.029Z,57.99
2017-06-12T06:49:04.659Z,58.37
2017-06-12T06:50:14.604Z,57.99
2017-06-12T06:51:25.019Z,57.99
2017-06-12T06:52:35.286Z,58.18
2017-06-12T06:53:45.545Z,58.28
2017-06-12T06:54:55.500Z,58.09
2017-06-12T06:56:05.792Z,58.28
2017-06-12T06:57:15.440Z,58.28
2017-06-12T06:58:25.730Z,58.18
2017-06-12T06:59:35.992Z,58.67
2017-06-12T07:00:45.947Z,58.31
2017-06-12T07:01:56.214Z,57.92
2017-06-12T07:03:06.315Z,58.09
2017-06-12T07:04:16.261Z,57.99
2017-06-12T07:05:26.233Z,58.12
2017-06-12T07:06:36.182Z,58.31
2017-06-12T07:07:46.446Z,57.63
2017-06-12T07:08:56.704Z,58.02
2017-06-12T07:10:06.651Z,58.12
2017-06-12T07:11:16.279Z,58.31
2017-06-12T07:12:26.228Z,58.5
2017-06-12T07:13:36.172Z,57.99
2017-06-12T07:14:46.268Z,58.28
2017-06-12T07:15:56.210Z,57.99
2017-06-12T07:17:06.189Z,58.18
2017-06-12T07:18:15.820Z,58.28
2017-06-12T07:19:25.455Z,58.21
2017-06-12T07:20:35.404Z,58.12
2017-06-12T07:21:45.673Z,57.82
2017-06-12T07:22:55.940Z,58.4
2017-06-12T07:24:05.883Z,57.82
2017-06-12T07:25:15.837Z,57.73
2017-06-12T07:26:26.101Z,57.63
2017-06-12T07:27:36.365Z,57.92
2017-06-12T07:28:46.647Z,58.12
2017-06-12T07:29:56.595Z,57.92
2017-06-12T07:31:06.542Z,57.54
2017-06-12T07:32:16.954Z,57.92
2017-06-12T07:33:27.218Z,57.73
2017-06-12T07:34:36.857Z,57.73
2017-06-12T07:35:46.808Z,57.73
2017-06-12T07:36:56.752Z,57.82
2017-06-12T07:38:06.387Z,57.63
2017-06-12T07:39:16.652Z,57.73
2017-06-12T07:40:26.601Z,57.92
2017-06-12T07:41:36.544Z,57.82
2017-06-12T07:42:46.813Z,57.82
2017-06-12T07:43:57.237Z,57.73
2017-06-12T07:45:06.870Z,57.54
2017-06-12T07:46:16.517Z,57.73
2017-06-12T07:47:26.469Z,57.73
2017-06-12T07:48:36.731Z,57.92
2017-06-12T07:49:46.685Z,57.73
2017-06-12T07:50:56.951Z,57.63
2017-06-12T07:52:07.213Z,58.02
2017-06-12T07:53:17.166Z,57.82
2017-06-12T07:54:26.813Z,57.73
2017-06-12T07:55:37.237Z,57.82
2017-06-12T07:56:47.503Z,57.24
2017-06-12T07:57:57.450Z,57.63
2017-06-12T07:59:07.405Z,57.92
2017-06-12T08:00:17.672Z,57.92
2017-06-12T08:01:27.312Z,57.54
2017-06-12T08:02:37.578Z,57.82
2017-06-12T08:03:47.840Z,57.73
2017-06-12T08:04:58.104Z,57.82
2017-06-12T08:06:07.420Z,57.63
2017-06-12T08:07:17.674Z,57.82
2017-06-12T08:08:27.932Z,57.82
2017-06-12T08:09:37.879Z,57.54
2017-06-12T08:10:47.513Z,58.02
2017-06-12T08:11:57.451Z,58.02
2017-06-12T08:13:07.709Z,57.63
2017-06-12T08:14:17.659Z,57.82
2017-06-12T08:15:27.296Z,57.82
2017-06-12T08:16:36.614Z,57.54
2017-06-12T08:17:46.562Z,57.82
2017-06-12T08:18:56.199Z,57.63
2017-06-12T08:20:06.145Z,57.73
2017-06-12T08:21:15.464Z,57.54
2017-06-12T08:22:25.412Z,57.54
2017-06-12T08:23:35.054Z,57.54
2017-06-12T08:24:45.323Z,57.44
2017-06-12T08:25:55.587Z,57.15
2017-06-12T08:27:05.221Z,57.73
2017-06-12T08:28:15.174Z,57.44
2017-06-12T08:29:25.581Z,57.54
2017-06-12T08:30:35.846Z,57.54
2017-06-12T08:31:46.111Z,57.24
2017-06-12T08:32:56.060Z,57.73
2017-06-12T08:34:05.376Z,57.24
2017-06-12T08:35:15.642Z,57.92
2017-06-12T08:36:25.274Z,57.54
2017-06-12T08:37:35.538Z,57.63
2017-06-12T08:38:44.883Z,57.05
2017-06-12T08:39:55.149Z,57.34
2017-06-12T08:41:05.128Z,57.05
2017-06-12T08:42:15.398Z,57.24
2017-06-12T08:43:25.663Z,57.34
2017-06-12T08:44:35.929Z,57.34
2017-06-12T08:45:45.880Z,57.24
2017-06-12T08:46:55.662Z,57.34
2017-06-12T08:48:05.929Z,57.15
2017-06-12T08:49:16.194Z,57.63
2017-06-12T08:50:26.143Z,57.24
2017-06-12T08:51:36.408Z,57.44
2017-06-12T08:52:46.367Z,57.44
2017-06-12T08:53:56.629Z,57.24
2017-06-12T08:55:06.263Z,57.44
2017-06-12T08:56:16.529Z,57.15
2017-06-12T08:57:26.795Z,57.44
2017-06-12T08:58:36.464Z,57.44
2017-06-12T08:59:46.414Z,57.34
2017-06-12T09:00:56.054Z,57.24
2017-06-12T09:02:06.329Z,56.95
2017-06-12T09:03:15.971Z,57.05
2017-06-12T09:04:25.443Z,57.44
2017-06-12T09:05:35.395Z,56.86
2017-06-12T09:06:45.650Z,56.86
2017-06-12T09:07:55.595Z,57.24
2017-06-12T09:09:05.234Z,57.34
2017-06-12T09:10:15.184Z,57.15
2017-06-12T09:11:25.447Z,57.24
2017-06-12T09:12:35.707Z,57.44
2017-06-12T09:13:45.965Z,57.34
2017-06-12T09:14:56.229Z,57.34
2017-06-12T09:16:06.648Z,57.05
2017-06-12T09:17:16.590Z,57.34
2017-06-12T09:18:26.553Z,57.24
2017-06-12T09:19:35.876Z,57.34
2017-06-12T09:20:45.506Z,57.24
2017-06-12T09:21:55.455Z,57.24
2017-06-12T09:23:05.397Z,57.24
2017-06-12T09:24:15.348Z,56.95
2017-06-12T09:25:25.288Z,56.95
2017-06-12T09:26:34.926Z,56.76
2017-06-12T09:27:45.193Z,56.67
2017-06-12T09:28:55.176Z,57.24
2017-06-12T09:30:05.123Z,56.86
2017-06-12T09:31:15.390Z,56.57
2017-06-12T09:32:25.027Z,56.76
2017-06-12T09:33:35.438Z,56.57
2017-06-12T09:34:45.388Z,56.67
2017-06-12T09:35:55.651Z,56.76
2017-06-12T09:37:05.913Z,56.76
2017-06-12T09:38:16.168Z,57.15
2017-06-12T09:39:26.110Z,56.57
2017-06-12T09:40:36.372Z,56.67
2017-06-12T09:41:46.003Z,56.67
2017-06-12T09:42:55.634Z,57.24
2017-06-12T09:44:05.265Z,56.57
2017-06-12T09:45:15.214Z,56.37
2017-06-12T09:46:25.167Z,56.47
2017-06-12T09:47:35.431Z,56.86
2017-06-12T09:48:45.691Z,56.86
2017-06-12T09:49:55.952Z,56.86
2017-06-12T09:51:05.275Z,56.76
2017-06-12T09:52:15.230Z,56.67
2017-06-12T09:53:25.496Z,56.76
2017-06-12T09:54:35.761Z,56.67
2017-06-12T09:55:46.051Z,56.76
2017-06-12T09:56:56.307Z,57.05
2017-06-12T09:58:06.251Z,56.67
2017-06-12T09:59:15.579Z,56.76
2017-06-12T10:00:25.528Z,57.05
2017-06-12T10:01:34.849Z,56.76
2017-06-12T10:02:45.266Z,56.57
2017-06-12T10:03:55.529Z,56.76
2017-06-12T10:05:05.791Z,56.76
2017-06-12T10:06:15.425Z,56.76
2017-06-12T10:07:25.374Z,57.05
2017-06-12T10:08:35.634Z,56.67
2017-06-12T10:09:45.580Z,56.86
2017-06-12T10:10:55.525Z,56.67
2017-06-12T10:12:05.197Z,56.57
2017-06-12T10:13:15.149Z,56.47
2017-06-12T10:14:24.468Z,56.86
2017-06-12T10:15:34.103Z,56.57
2017-06-12T10:16:44.373Z,56.57
2017-06-12T10:17:54.640Z,56.67
2017-06-12T10:19:04.899Z,56.47
2017-06-12T10:20:15.166Z,56.37
2017-06-12T10:21:24.801Z,56.37
2017-06-12T10:22:34.746Z,56.47
2017-06-12T10:23:45.011Z,56.67
2017-06-12T10:24:54.964Z,56.37
2017-06-12T10:26:05.060Z,56.76
2017-06-12T10:27:15.319Z,56.47
2017-06-12T10:28:25.269Z,56.37
2017-06-12T10:29:35.227Z,56.37
2017-06-12T10:30:45.492Z,56.37
2017-06-12T10:31:55.436Z,56.67
2017-06-12T10:33:05.388Z,56.18
2017-06-12T10:34:15.027Z,56.28
2017-06-12T10:35:25.290Z,56.37
2017-06-12T10:36:35.557Z,56.37
2017-06-12T10:37:45.813Z,56.47
2017-06-12T10:38:56.078Z,56.18
2017-06-12T10:40:06.346Z,56.47
2017-06-12T10:41:15.660Z,56.09
2017-06-12T10:42:25.919Z,56.57
2017-06-12T10:43:35.871Z,56.57
2017-06-12T10:44:45.827Z,56.57
2017-06-12T10:45:55.777Z,56.57
2017-06-12T10:47:05.728Z,56.67
2017-06-12T10:48:15.985Z,56.57
2017-06-12T10:49:24.829Z,56.57
2017-06-12T10:50:34.779Z,56.57
2017-06-12T10:51:44.724Z,56.57
2017-06-12T10:52:54.678Z,56.47
2017-06-12T10:54:04.306Z,56.67
2017-06-12T10:55:13.942Z,56.47
2017-06-12T10:56:23.890Z,56.76
2017-06-12T10:57:33.525Z,56.37
2017-06-12T10:58:43.791Z,56.76
2017-06-12T10:59:54.058Z,56.67
2017-06-12T11:01:04.009Z,56.76
2017-06-12T11:02:13.966Z,56.67
2017-06-12T11:03:24.227Z,56.28
2017-06-12T11:04:34.177Z,56.57
2017-06-12T11:05:44.445Z,56.28
2017-06-12T11:06:54.547Z,56.57
2017-06-12T11:08:04.180Z,56.57
2017-06-12T11:09:14.126Z,56.57
2017-06-12T11:10:24.072Z,56.28
2017-06-12T11:11:34.335Z,56.28
2017-06-12T11:12:44.595Z,56.57
2017-06-12T11:13:54.540Z,56.47
2017-06-12T11:15:03.862Z,55.89
2017-06-12T11:16:13.499Z,56.18
2017-06-12T11:17:23.768Z,55.99
2017-06-12T11:18:34.034Z,56.18
2017-06-12T11:19:43.669Z,55.89
2017-06-12T11:20:53.613Z,55.89
2017-06-12T11:22:03.877Z,55.89
2017-06-12T11:23:14.138Z,55.99
2017-06-12T11:24:24.231Z,55.99
2017-06-12T11:25:33.860Z,56.18
2017-06-12T11:26:43.801Z,56.18
2017-06-12T11:27:54.070Z,56.09
2017-06-12T11:29:04.347Z,56.28
2017-06-12T11:30:14.643Z,56.09
2017-06-12T11:31:24.595Z,55.99
2017-06-12T11:32:33.918Z,55.99
2017-06-12T11:33:43.868Z,56.09
2017-06-12T11:34:54.142Z,56.28
2017-06-12T11:36:03.928Z,56.09
2017-06-12T11:37:13.564Z,55.99
2017-06-12T11:38:23.822Z,56.09
2017-06-12T11:39:34.091Z,56.09
2017-06-12T11:40:43.746Z,56.09
2017-06-12T11:41:53.698Z,56.18
2017-06-12T11:43:03.991Z,55.89
2017-06-12T11:44:14.259Z,55.99
2017-06-12T11:45:24.531Z,56.28
2017-06-12T11:46:34.486Z,56.28
2017-06-12T11:47:44.119Z,55.99
2017-06-12T11:48:54.077Z,56.09
2017-06-12T11:50:04.341Z,56.09
2017-06-12T11:51:13.660Z,55.99
2017-06-12T11:52:23.611Z,56.28
2017-06-12T11:53:34.026Z,56.09
2017-06-12T11:54:44.297Z,56.28
2017-06-12T11:55:54.247Z,56.18
2017-06-12T11:57:04.199Z,55.89
2017-06-12T11:58:14.153Z,52.7
2017-06-12T11:59:23.475Z,52.31
2017-06-12T12:00:32.789Z,51.61
2017-06-12T12:01:43.080Z,53.06
2017-06-12T12:02:52.718Z,52.87
2017-06-12T12:04:02.983Z,51.32
2017-06-12T12:05:12.936Z,50.16
2017-06-12T12:06:22.881Z,49.29
2017-06-12T12:07:32.521Z,50.84
2017-06-12T12:08:42.783Z,50.55
2017-06-12T12:09:52.413Z,51.81
2017-06-12T12:11:02.513Z,49.39
2017-06-12T12:12:12.779Z,48.61
2017-06-12T12:13:23.046Z,47.53
2017-06-12T12:14:33.001Z,47.53
2017-06-12T12:15:43.259Z,47.63
2017-06-12T12:16:52.895Z,47.63
2017-06-12T12:18:03.159Z,47.72
2017-06-12T12:19:12.787Z,47.36
2017-06-12T12:20:22.742Z,49.1
2017-06-12T12:21:33.031Z,49.19
2017-06-12T12:22:42.669Z,49.07
2017-06-12T12:23:52.632Z,49.49
2017-06-12T12:25:02.925Z,50.07
2017-06-12T12:26:12.875Z,50.26
2017-06-12T12:27:22.829Z,51.03
2017-06-12T12:28:33.244Z,51.13
2017-06-12T12:29:43.527Z,51.32
2017-06-12T12:30:52.852Z,50.16
2017-06-12T12:32:02.800Z,51.13
2017-06-12T12:33:12.753Z,51.03
2017-06-12T12:34:22.697Z,50.16
2017-06-12T12:35:32.649Z,50.07
2017-06-12T12:36:42.280Z,50.45
2017-06-12T12:37:52.555Z,51.03
2017-06-12T12:39:02.815Z,51.32
2017-06-12T12:40:12.450Z,51.81
2017-06-12T12:41:22.711Z,51.42
2017-06-12T12:42:32.980Z,51.71
2017-06-12T12:43:43.250Z,51.81
2017-06-12T12:44:53.518Z,51.51
2017-06-12T12:46:03.653Z,51.9
2017-06-12T12:47:13.599Z,51.71
2017-06-12T12:48:23.237Z,52.09
2017-06-12T12:49:33.187Z,51.9
2017-06-12T12:50:43.500Z,51.9
2017-06-12T12:51:53.447Z,52
2017-06-12T12:53:03.709Z,52
2017-06-12T12:54:13.663Z,51.9
2017-06-12T12:55:23.926Z,52.19
2017-06-12T12:56:33.559Z,52.29
2017-06-12T12:57:43.659Z,52.19
2017-06-12T12:58:53.290Z,52.19
2017-06-12T13:00:03.244Z,52.48
2017-06-12T13:01:13.507Z,52.19
2017-06-12T13:02:23.768Z,52.58
2017-06-12T13:03:33.723Z,52.48
2017-06-12T13:04:43.675Z,52.09
2017-06-12T13:05:53.619Z,52
2017-06-12T13:07:03.572Z,52
2017-06-12T13:08:13.210Z,51.9
2017-06-12T13:09:23.044Z,52.48
2017-06-12T13:10:33.332Z,52.19
2017-06-12T13:11:43.278Z,52.58
2017-06-12T13:12:52.919Z,52.29
2017-06-12T13:14:03.182Z,52.29
2017-06-12T13:15:12.820Z,52.58
2017-06-12T13:16:22.765Z,52.48
2017-06-12T13:17:32.403Z,52.58
2017-06-12T13:18:42.354Z,52.09
2017-06-12T13:19:52.024Z,52.48
2017-06-12T13:21:02.291Z,52.58
2017-06-12T13:22:12.248Z,52.09
2017-06-12T13:23:22.507Z,52
2017-06-12T13:24:32.777Z,52.29
2017-06-12T13:25:42.723Z,52
2017-06-12T13:26:52.824Z,52.51
2017-06-12T13:28:02.460Z,52.09
2017-06-12T13:29:12.410Z,52
2017-06-12T13:30:22.678Z,52.09
2017-06-12T13:31:32.641Z,51.9
2017-06-12T13:32:42.594Z,52
2017-06-12T13:33:52.886Z,52
2017-06-12T13:35:02.525Z,52.58
2017-06-12T13:36:12.159Z,52.09
2017-06-12T13:37:22.427Z,52.19
2017-06-12T13:38:32.523Z,52.48
2017-06-12T13:39:42.789Z,52.58
2017-06-12T13:40:53.051Z,52.67
2017-06-12T13:42:02.993Z,52.09
2017-06-12T13:43:12.630Z,52.58
2017-06-12T13:44:23.073Z,52
2017-06-12T13:45:33.026Z,52.58
2017-06-12T13:46:43.284Z,52.48
2017-06-12T13:47:53.229Z,52.19
2017-06-12T13:49:03.491Z,52.09
2017-06-12T13:50:13.437Z,52.39
2017-06-12T13:51:23.699Z,51.54
2017-06-12T13:52:33.655Z,51.71
2017-06-12T13:53:43.596Z,51.81
2017-06-12T13:54:53.538Z,51.9
2017-06-12T13:56:03.488Z,52
2017-06-12T13:57:13.750Z,52.19
2017-06-12T13:58:24.016Z,52
2017-06-12T13:59:33.651Z,51.9
2017-06-12T14:00:43.283Z,52.58
2017-06-12T14:01:53.702Z,52
2017-06-12T14:03:03.647Z,52.19
2017-06-12T14:04:13.914Z,52.09
2017-06-12T14:05:23.866Z,52.58
2017-06-12T14:06:34.129Z,51.9
2017-06-12T14:07:44.391Z,52.02
2017-06-12T14:08:54.654Z,52
2017-06-12T14:10:03.974Z,51.9
2017-06-12T14:11:13.919Z,52.19
2017-06-12T14:12:23.553Z,52.09
2017-06-12T14:13:33.199Z,52
2017-06-12T14:14:43.213Z,52.29
2017-06-12T14:15:53.497Z,52.09
2017-06-12T14:17:03.459Z,52.19
2017-06-12T14:18:13.408Z,52.29
2017-06-12T14:19:23.509Z,52.39
2017-06-12T14:20:32.832Z,52.09
2017-06-12T14:21:42.784Z,52.48
2017-06-12T14:22:52.736Z,52.09
2017-06-12T14:24:02.372Z,52
2017-06-12T14:25:12.320Z,52
2017-06-12T14:26:21.641Z,52.09
2017-06-12T14:27:31.284Z,52.09
2017-06-12T14:28:41.232Z,52.19
2017-06-12T14:29:51.189Z,52.58
2017-06-12T14:31:00.508Z,52.09
2017-06-12T14:32:10.460Z,52.09
2017-06-12T14:33:20.418Z,51.9
2017-06-12T14:34:30.363Z,52
2017-06-12T14:35:40.313Z,51.71
2017-06-12T14:36:50.737Z,51.81
2017-06-12T14:38:00.691Z,50.35
2017-06-12T14:39:10.327Z,50.55
2017-06-12T14:40:20.291Z,50.55
2017-06-12T14:41:30.550Z,50.35
2017-06-12T14:42:40.500Z,49.49
2017-06-12T14:43:50.452Z,49.39
2017-06-12T14:45:00.403Z,49.49
2017-06-12T14:46:10.355Z,50.65
2017-06-12T14:47:19.988Z,50.07
2017-06-12T14:48:30.255Z,50.35
2017-06-12T14:49:39.895Z,51.23
2017-06-12T14:50:49.524Z,50.84
2017-06-12T14:51:59.471Z,50.93
2017-06-12T14:53:09.421Z,51.03
2017-06-12T14:54:19.516Z,51.81
2017-06-12T14:55:29.468Z,51.51
2017-06-12T14:56:39.727Z,51.32
2017-06-12T14:57:49.678Z,51.03
2017-06-12T14:58:59.983Z,51.13
2017-06-12T15:00:10.397Z,51.23
2017-06-12T15:01:20.033Z,51.23
2017-06-12T15:02:30.297Z,51.32
2017-06-12T15:03:39.938Z,50.84
2017-06-12T15:04:50.208Z,50.48
2017-06-12T15:06:00.160Z,50.76